createdAt,value
2022-08-28T00:08:57.312Z,22.4
2022-08-28T00:18:59.584Z,22.3
2022-08-28T00:29:02.085Z,22.3
2022-08-28T00:39:03.756Z,22.2
2022-08-28T00:59:08.326Z,22
2022-08-28T01:09:09.993Z,22
2022-08-28T01:19:12.594Z,21.9
2022-08-28T01:29:14.354Z,21.8
2022-08-28T01:39:16.669Z,21.9
2022-08-28T01:49:19.174Z,21.8
2022-08-28T01:59:21.745Z,21.7
2022-08-28T02:09:24.046Z,21.7
2022-08-28T02:19:26.341Z,21.7
2022-08-28T02:29:28.944Z,21.6
2022-08-28T02:39:31.173Z,21.6
2022-08-28T02:49:35.588Z,21.7
2022-08-28T03:09:37.090Z,21.6
2022-08-28T03:19:39.568Z,21.5
2022-08-28T03:29:41.987Z,21.4
2022-08-28T03:39:44.512Z,21.3
2022-08-28T03:49:46.643Z,21.2
2022-08-28T03:59:48.955Z,21.1
2022-08-28T04:09:51.294Z,21
2022-08-28T04:19:53.701Z,20.9
2022-08-28T04:29:55.603Z,20.8
2022-08-28T04:39:57.388Z,20.7
2022-08-28T04:49:59.386Z,20.7
2022-08-28T05:00:01.262Z,20.6
2022-08-28T05:10:03.796Z,20.6
2022-08-28T05:20:05.644Z,20.6
2022-08-28T05:30:08.006Z,20.4
2022-08-28T05:40:09.808Z,20.4
2022-08-28T05:50:11.792Z,20.6
2022-08-28T06:00:13.772Z,20.7
2022-08-28T06:10:16.232Z,20.8
2022-08-28T06:20:18.136Z,20.9
2022-08-28T06:30:20.702Z,21
2022-08-28T06:40:23.108Z,21.2
2022-08-28T06:50:25.418Z,21.6
2022-08-28T07:00:27.681Z,22
2022-08-28T07:10:29.565Z,22.2
2022-08-28T07:20:31.775Z,22.4
2022-08-28T07:30:33.664Z,22.6
2022-08-28T07:40:35.657Z,22.9
2022-08-28T07:50:37.359Z,23
2022-08-28T08:00:39.881Z,23.1
2022-08-28T08:10:42.225Z,23.2
2022-08-28T08:20:44.397Z,23.3
2022-08-28T08:30:46.462Z,23.4
2022-08-28T08:40:48.587Z,23.5
2022-08-28T08:50:50.491Z,23.6
2022-08-28T09:10:55.131Z,23.9
2022-08-28T09:20:56.878Z,24
2022-08-28T10:01:06.092Z,24.3
2022-08-28T10:11:08.144Z,24.3
2022-08-28T10:21:10.003Z,24.4
2022-08-28T10:31:12.711Z,24.4
2022-08-28T10:41:14.744Z,24.5
2022-08-28T10:51:17.211Z,24.5
2022-08-28T11:01:19.552Z,24.5
2022-08-28T11:11:21.603Z,24.5
2022-08-28T11:21:23.362Z,24.5
2022-08-28T11:41:28.134Z,24.6
2022-08-28T11:51:30.160Z,24.6
2022-08-28T12:01:32.781Z,24.6
2022-08-28T12:11:34.704Z,24.6
2022-08-28T12:21:37.158Z,24.6
2022-08-28T12:31:39.291Z,24.6
2022-08-28T12:41:41.474Z,24.6
2022-08-28T12:51:43.592Z,24.6
2022-08-28T13:01:46.042Z,24.6
2022-08-28T13:11:47.757Z,24.6
2022-08-28T13:21:49.864Z,24.6
2022-08-28T13:31:52.230Z,24.5
2022-08-28T13:41:54.436Z,24.5
2022-08-28T13:51:56.112Z,24.5
2022-08-28T14:01:58.074Z,24.5
2022-08-28T14:02:21.918Z,24.5
2022-08-28T14:12:06.965Z,24.5
2022-08-28T14:32:11.550Z,24.4
2022-08-28T14:52:15.948Z,24.4
2022-08-28T15:12:20.903Z,24.4
2022-08-28T15:32:25.573Z,24.4
2022-08-28T15:52:30.471Z,24.4
2022-08-28T16:02:32.890Z,24.3
2022-08-28T16:12:34.530Z,24.3
2022-08-28T16:22:36.600Z,24.3
2022-08-28T16:32:38.512Z,24.2
2022-08-28T16:42:40.264Z,24.2
2022-08-28T16:52:42.089Z,24.2
2022-08-28T17:02:44.689Z,24.1
2022-08-28T17:22:49.243Z,24
2022-08-28T17:42:53.979Z,23.9
2022-08-28T17:52:56.093Z,23.9
2022-08-28T18:02:58.209Z,23.8
2022-08-28T18:13:00.448Z,23.7
2022-08-28T18:23:02.547Z,23.5
2022-08-28T18:33:04.408Z,23.4
2022-08-28T18:43:06.104Z,23.3
2022-08-28T18:53:08.092Z,23.2
2022-08-28T19:03:09.862Z,23.1
2022-08-28T19:13:11.693Z,22.9
2022-08-28T19:23:17.343Z,22.8
2022-08-28T19:33:16.562Z,22.6
2022-08-28T19:43:18.998Z,22.6
2022-08-28T19:53:21.654Z,22.5
2022-08-28T20:43:33.210Z,22
2022-08-28T21:13:39.220Z,21.7
2022-08-28T21:53:47.446Z,21.7
2022-08-28T22:03:49.272Z,21.6
2022-08-28T22:23:53.933Z,21.4
2022-08-28T22:33:56.079Z,21.3
2022-08-28T22:43:58.341Z,21.2
2022-08-28T22:54:00.052Z,21.1
2022-08-28T23:04:02.368Z,21
2022-08-28T23:14:04.574Z,20.9
2022-08-28T23:24:07.118Z,20.8
2022-08-28T23:34:09.344Z,20.7
